Startpagina
METAR-TAF:

METAR-TAF

Vliegvelden :

Wellington, Nieuw-Zeeland

breedte: 41-20S, lengte: 174-48E, hoogte: 12 m

Actueel weer

Dit bericht is 17 minuten geleden gemaakt, om 02:30 UTC
Wind 12 kt uit het noorden
Temperatuur 15°C
Vochtigheid 59%
Druk 1003 hPa
Zicht 10 km of meer

METAR: NZWN 250230Z AUTO 36012KT 9999 NCD 15/07 Q1003 NOSIG

Tijdstip: 14:47 (02:47 UTC)

Verwachting

Dit bericht is 3 uur en het 43 minuten geleden gemaakt, om 23:04 UTC
Verwachting geldig van 25 om 00 UTC tot 26 om 00 UTC
Wind 8 kt uit het noorden
Zicht 10 km of meer
geen wolken onder 1500 m en geen cumulonimbus

TAF: NZWN 242304Z 2500/2600 36008KT CAVOK

Waarnemingen en weersverwachtingen van meer dan 4000 vliegvelden (METAR en TAF).

De beschikbare stations zijn de gele en rode punten op de kaart.

Ga met uw muis naar het station om de naam te zien.

Klik dan om waarnemingen en weersverwachtingen te zien.

kaart wijzigen: klik op de groene knoppen met een zwart kruis om in te zoomen, op de groene knop met een streepje om uit te zoomen of op de groene pijlen voor aangrenzende kaarten.


METAR-TAF: